Burna, Kentucky
Current Conditions -  °F | °C
As of 8:15 PM on Sunday 21 Dec 2014 (Local Time) from K5M9 Reporting Station
Clear Clear  
Wind Chill: 30°   Ceiling: Unl
Heat Index: 36°   Visibility: 10mi
Dew Point: 28°   Wind: 7mph
Humidity: 75%   Direction: 90°E
Pressure: 30.03"   Gusts: NA
Location:  37.25°N, 88.36°W
Report Text: K5M9 220215Z AUTO 09006KT 10SM CLR 02/M02 A3003 RMK AO2 T00201020
Loading
Personal Weather Stations






























Interactive Weather Map New forecast layout! Learn more

10-Day Weather Forecast

Advertisements
Track Severe Weather on mobile